x

West Santa Barbara 38 Nm West Of Santa Barbara, Ca (46054) Weather Station

9:20pm - Wed 24th May 2017 All times are PDT. -7 hours from GMT.

  • Wind
    7mph, 11mph gusts
  • Sea Temp 55°f
  • Air Temp 56°f
  • Sea Pressure 1009.4mb
  • West Santa Barbara  38 Nm West Of Santa Barbara, Ca
  • West Santa Barbara  38 Nm West Of Santa Barbara, Ca

More Historic Weather Station data

Upgrade to MSW Pro to gain access to the past 30 days of data for over 8000 Wavebouys and Weather Stations around the globe.

Join Pro

Comparision Forecast

View Surf forecast
   
Wed 05/24 9:20pm  -   -   -  7 11 mph 1009.4mb 55f 56f
9:10pm  -   -   -  7 9 mph 1009.4mb 55f 55f
9:00pm  -   -   -  7 9 mph 1009.4mb 55f 55f
8:50pm 4ft 14s  -  7 11 mph 1009.4mb 55f 55f
8:40pm  -   -   -  7 9 mph 1009.3mb 56f 55f
8:30pm  -   -   -  7 9 mph 1009.1mb 56f 55f
8:20pm  -   -   -  9 9 mph 1009.1mb 56f 55f
8:10pm  -   -   -  9 11 mph 1009.1mb 56f 55f
8:00pm  -   -   -  9 11 mph 1009.4mb 56f 55f
7:50pm 4.5ft 13s  -  11 13 mph 1009.3mb 56f 55f
7:40pm  -   -   -  11 13 mph 1009.4mb 56f 55f
7:30pm  -   -   -  9 13 mph 1009.4mb 56f 55f
7:20pm  -   -   -  11 13 mph 1009.4mb 56f 55f
7:10pm  -   -   -  11 13 mph 1009.5mb 56f 55f
7:00pm  -   -   -  11 11 mph 1009.5mb 56f 55f
6:50pm 4.5ft 13s  -  11 13 mph 1009.5mb 56f 55f
6:40pm  -   -   -  11 13 mph 1009.5mb 56f 55f
6:30pm  -   -   -  11 13 mph 1009.6mb 56f 55f
6:20pm  -   -   -  11 13 mph 1009.6mb 56f 55f
6:10pm  -   -   -  11 13 mph 1009.8mb 56f 55f
6:00pm  -   -   -  11 13 mph 1009.9mb 56f 55f
5:50pm 3.5ft 12s 7s 11 13 mph 1010mb 56f 55f
5:40pm  -   -   -  11 13 mph 1010mb 56f 55f
5:30pm  -   -   -  11 13 mph 1010.1mb 56f 55f
5:20pm  -   -   -  11 13 mph 1010.1mb 56f 55f
5:10pm  -   -   -  11 13 mph 1010.3mb 56f 55f
5:00pm  -   -   -  11 13 mph 1010.5mb 56f 55f
4:50pm 4ft 13s  -  11 13 mph 1010.5mb 56f 55f
4:40pm  -   -   -  11 13 mph 1010.5mb 56f 55f
4:30pm  -   -   -  11 16 mph 1010.6mb 56f 55f
4:20pm  -   -   -  11 13 mph 1010.8mb 56f 55f
4:10pm  -   -   -  11 16 mph 1010.8mb 56f 55f
4:00pm  -   -   -  13 16 mph 1010.9mb 56f 55f
3:40pm  -   -   -  11 13 mph 1011mb 56f 55f
3:30pm  -   -   -  11 13 mph 1011mb 56f 55f
3:20pm  -   -   -  11 13 mph 1011mb 56f 55f
3:10pm  -   -   -  11 13 mph 1011.1mb 56f 55f
3:00pm  -   -   -  11 16 mph 1011.1mb 56f 55f
2:50pm 3.5ft 14s  -  11 13 mph 1011.3mb 56f 55f
2:40pm  -   -   -  11 13 mph 1011.4mb 56f 55f
2:30pm  -   -   -  11 13 mph 1011.5mb 56f 55f
2:20pm  -   -   -  9 11 mph 1011.5mb 56f 55f
2:10pm  -   -   -  9 11 mph 1011.5mb 56f 55f
2:00pm  -   -   -  9 11 mph 1011.5mb 56f 55f
1:40pm  -   -   -  9 11 mph 1011.5mb 55f 55f
1:30pm  -   -   -  11 13 mph 1011.5mb 55f 55f
1:20pm  -   -   -  11 13 mph 1011.6mb 55f 55f
1:10pm  -   -   -  11 16 mph 1011.8mb 55f 55f
1:00pm  -   -   -  13 16 mph 1011.6mb 55f 55f
12:50pm 4.5ft 14s  -  13 16 mph 1011.8mb 55f 55f
12:40pm  -   -   -  11 16 mph 1012mb 56f 55f
12:30pm  -   -   -  11 13 mph 1012mb 56f 55f
12:20pm  -   -   -  13 16 mph 1012mb 56f 55f
12:10pm  -   -   -  13 16 mph 1011.6mb 55f 55f
12:00pm  -   -   -  11 13 mph 1011.8mb 55f 55f
11:50am 4ft 13s  -  13 18 mph 1011.6mb 55f 55f
11:40am  -   -   -  13 18 mph 1011.5mb 55f 55f
11:30am  -   -   -  13 16 mph 1011.5mb 55f 54f
11:20am  -   -   -  11 13 mph 1012mb 55f 54f
11:10am  -   -   -  11 16 mph 1012.4mb 54f 54f
11:00am  -   -   -  13 16 mph 1012.1mb 54f 54f
10:40am  -   -   -  16 18 mph 1012.4mb 54f 54f
10:30am  -   -   -  13 16 mph 1012.5mb 54f 54f
10:20am  -   -   -  11 16 mph 1012.5mb 54f 54f
10:10am  -   -   -  13 18 mph 1012.8mb 54f 53f
10:00am  -   -   -  13 18 mph 1012.3mb 54f 53f
9:50am 4ft 14s  -  13 16 mph 1012.5mb 54f 53f
9:30am  -   -   -  13 16 mph 1013mb 54f 53f
9:20am  -   -   -  11 16 mph 1012.9mb 54f 53f
9:10am  -   -   -  13 18 mph 1012.8mb 54f 53f
9:00am  -   -   -  13 18 mph 1012.3mb 54f 53f
8:50am 4ft 14s  -  13 18 mph 1012.4mb 54f 53f
8:40am  -   -   -  13 18 mph 1012.5mb 53f 53f
8:30am  -   -   -  13 16 mph 1012.5mb 53f 53f
8:20am  -   -   -  11 13 mph 1012.9mb 53f 52f
8:10am  -   -   -  13 16 mph 1012.6mb 53f 52f
8:00am  -   -   -  13 18 mph 1012.5mb 53f 52f
7:30am  -   -   -  20 25 mph 1012.3mb 53f 52f
7:20am  -   -   -  18 25 mph 1012mb 53f 52f
7:10am  -   -   -  18 22 mph 1012.3mb 53f 52f
7:00am  -   -   -  18 20 mph 1012.4mb 53f 52f
6:40am  -   -   -  18 22 mph 1011.9mb 53f 52f
6:30am  -   -   -  20 25 mph 1011.6mb 53f 52f
6:20am  -   -   -  20 25 mph 1011.8mb 53f 52f
6:10am  -   -   -  20 25 mph 1011.5mb 53f 52f
6:00am  -   -   -  18 22 mph 1011.5mb 53f 52f
5:50am 4.5ft 14s  -  18 22 mph 1011.8mb 53f 52f
5:40am  -   -   -  16 20 mph 1011.6mb 53f 52f
5:30am  -   -   -  16 20 mph 1011.5mb 53f 52f
5:20am  -   -   -  18 22 mph 1011.4mb 53f 52f
5:10am  -   -   -  18 20 mph 1011.8mb 53f 52f
5:00am  -   -   -  20 25 mph 1011.3mb 53f 52f
4:50am 4.5ft 15s  -  20 27 mph 1010.9mb 53f 52f
4:40am  -   -   -  22 27 mph 1011.1mb 53f 52f
4:30am  -   -   -  22 27 mph 1011.1mb 53f 52f
4:20am  -   -   -  22 29 mph 1011mb 53f 52f
4:10am  -   -   -  22 27 mph 1011.1mb 53f 52f
4:00am  -   -   -  22 27 mph 1011.1mb 53f 52f
3:40am  -   -   -  20 25 mph 1011.5mb 53f 52f
3:30am  -   -   -  20 25 mph 1011.6mb 53f 52f
3:20am  -   -   -  20 25 mph 1011.6mb 53f 52f
3:10am  -   -   -  20 25 mph 1011.8mb 53f 52f
3:00am  -   -   -  20 25 mph 1011.8mb 53f 52f
2:50am 5ft 15s  -  20 25 mph 1011.6mb 53f 51f
2:40am  -   -   -  20 25 mph 1011.5mb 53f 52f
2:30am  -   -   -  22 27 mph 1011.5mb 53f 52f
2:20am  -   -   -  18 25 mph 1011.5mb 53f 52f
2:10am  -   -   -  20 25 mph 1011.5mb 53f 52f
2:00am  -   -   -  20 25 mph 1011.5mb 53f 52f
1:50am 5ft 15s  -  22 27 mph 1011.4mb 53f 52f
1:40am  -   -   -  22 27 mph 1011.6mb 53f 52f
1:30am  -   -   -  22 29 mph 1011.8mb 53f 52f
1:20am  -   -   -  22 29 mph 1011.8mb 53f 52f
1:10am  -   -   -  22 27 mph 1011.9mb 53f 52f
1:00am  -   -   -  22 29 mph 1012mb 53f 52f
12:40am  -   -   -  22 27 mph 1012mb 54f 52f
12:30am  -   -   -  22 29 mph 1012.1mb 54f 52f
12:20am  -   -   -  22 27 mph 1012mb 54f 52f
12:10am  -   -   -  22 27 mph 1012.1mb 54f 52f
12:00am  -   -   -  22 29 mph 1012mb 54f 52f
Tue 05/23 11:50pm  -   -   -  25 29 mph 1012mb 54f 52f
11:40pm  -   -   -  22 29 mph 1012.1mb 54f 52f
11:30pm  -   -   -   -  mph 1012.4mb 54f -
11:20pm  -   -   -  22 27 mph 1012.5mb 54f 52f
11:10pm  -   -   -  25 29 mph 1012.6mb 54f 52f
11:00pm  -   -   -  22 27 mph 1012.5mb 54f 52f
10:50pm 5ft 15s 5s 25 29 mph 1012.5mb 54f 52f
10:40pm 5ft  -  5s 22 29 mph 1012.5mb 54f 53f
10:30pm  -   -   -  22 27 mph 1012.5mb 54f 53f
10:20pm  -   -   -  25 29 mph 1012.5mb 54f 52f
10:10pm  -   -   -  22 29 mph 1012.5mb 54f 52f
10:00pm  -   -   -  22 29 mph 1012.4mb 54f 53f
9:40pm  -   -   -  25 29 mph 1012.3mb 55f 53f
9:30pm  -   -   -  25 29 mph 1012.3mb 55f 53f
9:20pm  -   -   -  25 29 mph 1012.3mb 55f 53f
9:10pm  -   -   -  25 29 mph 1012.3mb 55f 53f
9:00pm  -   -   -  22 29 mph 1012.4mb 55f 53f
8:40pm  -   -   -  25 29 mph 1012.3mb 55f 53f
8:30pm  -   -   -  27 31 mph 1012mb 55f 53f
8:20pm  -   -   -  25 29 mph 1012mb 55f 53f
8:10pm  -   -   -  25 31 mph 1012mb 55f 53f
8:00pm  -   -   -  25 31 mph 1012mb - 53f
7:40pm  -   -   -  25 31 mph 1012mb 56f 54f
7:30pm  -   -   -  25 29 mph 1012mb 56f 54f
7:20pm  -   -   -  25 31 mph 1012mb 56f 54f
7:10pm  -   -   -  22 29 mph 1012mb 56f 54f
7:00pm  -   -   -  22 29 mph 1012mb 56f 54f
6:50pm 4.5ft 16s  -  22 29 mph 1012mb 56f 55f
6:40pm  -   -   -  22 29 mph 1012mb 56f 54f
6:30pm  -   -   -  22 27 mph 1012.1mb 56f 54f
8:50am 3.5ft 15s 6s 11 16 mph 1015.2mb 55f 51f
7:50am 3.5ft 15s 5s 16 18 mph 1014.5mb 55f 51f
6:50am 3.5ft 15s 5s 11 13 mph 1014.2mb 55f 53f
5:50am 4ft 15s 5s 11 13 mph 1014mb 55f 52f
4:50am 4.5ft 15s 5s 13 16 mph 1014.2mb 55f 51f
3:50am 4ft 15s 5s 7 13 mph 1013.9mb 55f 54f
2:50am 4.5ft 15s 5s 22 25 mph 1013.4mb 55f 52f
1:50am 4.5ft 5s 5s 22 27 mph 1013.9mb 55f 52f
12:50am 5ft 15s 5s 27 31 mph 1014mb 55f 52f
Mon 05/22 11:50pm 5ft 15s 5s 27 31 mph 1014.2mb 55f 53f
10:50pm 4.5ft 4s 5s 25 29 mph 1014.1mb 55f 53f
9:50pm 5ft 15s 5s 25 29 mph 1013.9mb 55f 53f
8:50pm 5ft 15s 5s 25 29 mph 1013.8mb 55f 53f
7:50pm 5ft 15s 5s 25 29 mph 1013.5mb 55f 53f
6:50pm 5ft 4s 5s 25 29 mph 1013.4mb 57f 53f
5:50pm 4.5ft 8s 5s 25 27 mph 1013.3mb 58f 55f
4:50pm 4.5ft 16s 5s 25 29 mph 1014mb 58f 55f
3:50pm 4.5ft 15s 5s 22 27 mph 1014.7mb 58f 55f
2:50pm 4.5ft 9s 5s 20 25 mph 1015.2mb 58f 54f
1:50pm 4.5ft 8s 5s 20 22 mph 1015.4mb 58f 54f
12:50pm 4.5ft 9s 5s 18 20 mph 1015.7mb 58f 53f
11:50am 4.5ft 10s 5s 16 18 mph 1015.9mb 57f 52f
10:50am 4.5ft 8s 5s 16 20 mph 1015.7mb 57f 51f
9:50am 4.5ft 9s 5s 16 20 mph 1015.7mb 57f 51f
8:50am 5ft 10s 6s 18 20 mph 1015.1mb 56f 51f
7:50am 5ft 9s 5s 18 22 mph 1014.3mb 56f 51f
6:50am 5ft 5s 5s 20 25 mph 1014mb 55f 51f
5:50am 5ft 5s 5s 22 29 mph 1013.3mb 55f 51f
4:50am 5.5ft 11s 5s 25 27 mph 1013.1mb 55f 51f
3:50am 5ft 9s 5s 22 27 mph 1013.1mb 55f 51f
2:50am 6ft 10s 5s 25 29 mph 1013.1mb 54f 51f
1:50am 5.5ft 11s 5s 25 29 mph 1013.2mb 55f 52f
12:50am 5ft 5s 5s 27 29 mph 1013.4mb 55f 52f
Sun 05/21 11:50pm 5ft 10s 5s 25 29 mph 1013.8mb 55f 52f
10:50pm 5ft 4s 5s 25 29 mph 1014mb 56f 52f
9:50pm 5ft 5s 5s 25 31 mph 1013.6mb 57f 53f
8:50pm 5ft 12s 5s 25 29 mph 1013.4mb 57f 53f
7:50pm 5ft 4s 5s 25 29 mph 1013mb 57f 53f
6:50pm 5ft 4s 5s 27 29 mph 1012.7mb 57f 54f
5:50pm 4.5ft 11s 5s 27 31 mph 1012.7mb 58f 55f
4:50pm 4.5ft 12s 5s 25 29 mph 1013.1mb 59f 55f
3:50pm 4.5ft 9s 5s 20 22 mph 1013.5mb 59f 55f
2:50pm 4.5ft 8s 5s 20 22 mph 1014mb 59f 54f
1:50pm 5ft 9s 6s 18 22 mph 1014.3mb 58f 54f
12:50pm 4.5ft 12s 6s 13 18 mph 1014.2mb 58f 53f
11:50am 5ft 9s 6s 16 16 mph 1014.1mb 57f 53f
10:50am 4.5ft 8s 6s 13 16 mph 1013.8mb 56f 53f
9:50am 5ft 9s 6s 18 20 mph 1013.2mb 56f 52f
8:50am 5ft 8s 5s 16 18 mph 1012.8mb 55f 52f
7:50am 5.5ft 5s 5s 20 25 mph 1012.2mb 55f 52f
6:50am 6ft 8s 5s 25 29 mph 1011.2mb 55f 52f
5:50am 5.5ft 9s 5s 25 29 mph 1010.5mb 55f 52f